Time;durP1;ratioP1;P1;durP2;ratioP2;P2;SDS_P1;SDS_P2;PMS_P1;PMS_P2;Temp;Humidity;BMP_temperature;BMP_pressure;BME280_temperature;BME280_humidity;BME280_pressure;Samples;Min_cycle;Max_cycle;Signal;HPM_P1;HPM_P2
2022/01/06 00:01:32;;;;;;;3.88;0.80;;;;;;;;;;7394132;19;20461;-71
2022/01/06 00:03:57;;;;;;;5.20;0.90;;;;;;;;;;7390823;19;20472;-71
2022/01/06 00:06:24;;;;;;;10.13;1.40;;;;;;;;;;7391255;19;19995;-70
2022/01/06 00:08:49;;;;;;;5.03;1.00;;;;;;;;;;7388919;19;20012;-70
2022/01/06 00:11:14;;;;;;;5.53;0.90;;;;;;;;;;7391854;19;19999;-71
2022/01/06 00:13:53;;;;;;;3.38;0.90;;;;;;;;;;7390723;19;20005;-71
2022/01/06 00:16:33;;;;;;;4.43;1.13;;;;;;;;;;7390674;19;20344;-71
2022/01/06 00:24:12;;;;;;;3.88;1.05;;;;;;;;;;7390416;19;20005;-71
2022/01/06 00:26:38;;;;;;;5.53;1.15;;;;;;;;;;7390417;19;19998;-71
2022/01/06 00:29:04;;;;;;;7.45;1.35;;;;;;;;;;7388191;19;19995;-71
2022/01/06 00:31:29;;;;;;;3.92;1.45;;;;;;;;;;7391264;19;19995;-71
2022/01/06 00:33:54;;;;;;;4.80;1.10;;;;;;;;;;7389971;19;20494;-72
2022/01/06 00:36:19;;;;;;;5.75;1.02;;;;;;;;;;7389999;19;20002;-71
2022/01/06 00:38:45;;;;;;;4.10;1.17;;;;;;;;;;7387824;19;20345;-71
2022/01/06 00:41:10;;;;;;;4.30;1.10;;;;;;;;;;7389759;19;20446;-73
2022/01/06 00:43:35;;;;;;;4.90;1.05;;;;;;;;;;7390299;19;19998;-71
2022/01/06 00:46:01;;;;;;;2.00;0.65;;;;;;;;;;7390029;19;19997;-72
2022/01/06 00:48:26;;;;;;;4.88;1.00;;;;;;;;;;7389618;19;20006;-71
2022/01/06 00:50:51;;;;;;;7.57;1.10;;;;;;;;;;7391649;19;19987;-72
2022/01/06 00:53:16;;;;;;;1.92;0.90;;;;;;;;;;7389627;19;19995;-72
2022/01/06 00:55:42;;;;;;;7.68;1.33;;;;;;;;;;7387947;19;20346;-71
2022/01/06 00:58:08;;;;;;;5.72;0.90;;;;;;;;;;7388076;19;19998;-72
2022/01/06 01:00:39;;;;;;;6.05;1.13;;;;;;;;;;7389108;19;20000;-71
2022/01/06 01:03:11;;;;;;;4.80;1.17;;;;;;;;;;7389437;19;19995;-72
2022/01/06 01:05:38;;;;;;;4.93;1.38;;;;;;;;;;7389191;19;19995;-71
2022/01/06 01:08:04;;;;;;;4.55;1.35;;;;;;;;;;7388444;19;20011;-72
2022/01/06 01:10:29;;;;;;;4.80;2.38;;;;;;;;;;7388359;19;19995;-71
2022/01/06 01:12:54;;;;;;;4.82;0.98;;;;;;;;;;7389187;19;20001;-72
2022/01/06 01:15:20;;;;;;;4.18;1.30;;;;;;;;;;7389174;19;19990;-71
2022/01/06 01:17:50;;;;;;;2.97;1.25;;;;;;;;;;7390776;19;20082;-71
2022/01/06 01:20:17;;;;;;;4.63;1.23;;;;;;;;;;7387661;19;19998;-71
2022/01/06 01:22:43;;;;;;;4.05;1.10;;;;;;;;;;7387496;19;20050;-72
2022/01/06 01:25:09;;;;;;;8.32;1.48;;;;;;;;;;7388820;19;19994;-71
2022/01/06 01:27:42;;;;;;;5.10;1.17;;;;;;;;;;7388334;19;19991;-71
2022/01/06 01:30:12;;;;;;;4.13;1.20;;;;;;;;;;7387409;19;20002;-73
2022/01/06 01:32:39;;;;;;;2.72;0.90;;;;;;;;;;7388544;19;19995;-71
2022/01/06 01:35:08;;;;;;;5.13;1.25;;;;;;;;;;7388150;19;19990;-71
2022/01/06 01:37:34;;;;;;;4.50;1.05;;;;;;;;;;7387902;19;20015;-70
2022/01/06 01:40:00;;;;;;;6.43;1.20;;;;;;;;;;7390139;19;20544;-71
2022/01/06 01:42:27;;;;;;;2.00;0.90;;;;;;;;;;7390584;19;19994;-71
2022/01/06 01:44:53;;;;;;;3.45;1.02;;;;;;;;;;7387842;19;19999;-72
2022/01/06 01:47:30;;;;;;;5.63;1.20;;;;;;;;;;7387999;19;20054;-71
2022/01/06 01:50:12;;;;;;;5.57;1.48;;;;;;;;;;7386593;19;19998;-71
2022/01/06 01:52:40;;;;;;;3.55;1.13;;;;;;;;;;7387818;19;19999;-70
2022/01/06 01:55:06;;;;;;;6.15;1.60;;;;;;;;;;7388122;19;19999;-71
2022/01/06 01:57:32;;;;;;;4.05;0.90;;;;;;;;;;7387790;19;20329;-72
2022/01/06 01:59:57;;;;;;;5.90;1.13;;;;;;;;;;7385197;19;20119;-71
2022/01/06 02:02:23;;;;;;;3.78;1.20;;;;;;;;;;7390583;19;20007;-71
2022/01/06 02:04:52;;;;;;;3.33;1.02;;;;;;;;;;7395005;19;20062;-71
2022/01/06 02:07:18;;;;;;;3.70;0.85;;;;;;;;;;7395814;19;19994;-71
2022/01/06 02:09:43;;;;;;;7.13;1.58;;;;;;;;;;7391131;19;20456;-71
2022/01/06 02:12:10;;;;;;;10.40;1.10;;;;;;;;;;7395078;19;20014;-72
2022/01/06 02:14:37;;;;;;;3.85;1.80;;;;;;;;;;7394689;19;20003;-71
2022/01/06 02:17:03;;;;;;;4.15;1.10;;;;;;;;;;7394551;19;20028;-71
2022/01/06 02:19:28;;;;;;;7.63;1.35;;;;;;;;;;7391635;19;20417;-71
2022/01/06 02:21:53;;;;;;;2.92;0.88;;;;;;;;;;7393005;19;19994;-71
2022/01/06 02:24:18;;;;;;;2.55;1.13;;;;;;;;;;7394697;19;20443;-71
2022/01/06 02:26:44;;;;;;;3.95;1.20;;;;;;;;;;7394774;19;20355;-72
2022/01/06 02:29:10;;;;;;;3.33;1.17;;;;;;;;;;7394922;19;19995;-72
2022/01/06 02:31:43;;;;;;;4.75;1.65;;;;;;;;;;7398165;19;19995;-71
2022/01/06 02:34:09;;;;;;;4.60;1.50;;;;;;;;;;7394598;19;19997;-71
2022/01/06 02:36:34;;;;;;;5.25;1.17;;;;;;;;;;7394285;19;19995;-71
2022/01/06 02:39:00;;;;;;;4.07;1.00;;;;;;;;;;7391210;19;20106;-72
2022/01/06 02:41:25;;;;;;;2.30;1.10;;;;;;;;;;7392952;19;20463;-72
2022/01/06 02:43:50;;;;;;;7.40;1.92;;;;;;;;;;7393859;19;20086;-71
2022/01/06 02:46:16;;;;;;;4.40;1.00;;;;;;;;;;7393756;19;20336;-71
2022/01/06 02:48:41;;;;;;;4.03;1.08;;;;;;;;;;7391075;19;19998;-71
2022/01/06 02:51:06;;;;;;;6.63;1.30;;;;;;;;;;7393814;19;19995;-71
2022/01/06 02:53:32;;;;;;;2.50;1.13;;;;;;;;;;7393543;19;20002;-71
2022/01/06 02:55:57;;;;;;;1.50;0.98;;;;;;;;;;7393968;19;20095;-71
2022/01/06 02:58:22;;;;;;;3.70;1.10;;;;;;;;;;7391556;19;20377;-71
2022/01/06 03:00:49;;;;;;;4.97;0.82;;;;;;;;;;7391291;19;20008;-71
2022/01/06 03:03:14;;;;;;;3.70;1.10;;;;;;;;;;7393062;19;20002;-71
2022/01/06 03:05:40;;;;;;;3.05;1.27;;;;;;;;;;7393513;19;19994;-71
2022/01/06 03:08:06;;;;;;;4.50;1.10;;;;;;;;;;7393222;19;20054;-71
2022/01/06 03:10:37;;;;;;;4.75;1.00;;;;;;;;;;7393135;19;20074;-71
2022/01/06 03:13:04;;;;;;;3.53;1.15;;;;;;;;;;7393294;19;19998;-72
2022/01/06 03:15:29;;;;;;;6.60;1.30;;;;;;;;;;7392798;19;20002;-70
2022/01/06 03:17:56;;;;;;;2.65;0.77;;;;;;;;;;7393862;19;19998;-71
2022/01/06 03:20:23;;;;;;;3.92;1.27;;;;;;;;;;7395278;19;20376;-71
2022/01/06 03:22:52;;;;;;;5.63;1.02;;;;;;;;;;7390527;19;19999;-72
2022/01/06 03:25:18;;;;;;;4.70;1.75;;;;;;;;;;7392821;19;20094;-71
2022/01/06 03:27:44;;;;;;;3.45;1.00;;;;;;;;;;7392397;19;20006;-71
2022/01/06 03:30:13;;;;;;;5.95;1.15;;;;;;;;;;7391451;19;19998;-71
2022/01/06 03:32:39;;;;;;;4.18;1.13;;;;;;;;;;7392324;19;19991;-71
2022/01/06 03:35:05;;;;;;;3.40;1.00;;;;;;;;;;7392386;19;20083;-71
2022/01/06 03:37:30;;;;;;;1.48;1.08;;;;;;;;;;7392347;19;20073;-72
2022/01/06 03:39:56;;;;;;;2.13;0.85;;;;;;;;;;7391820;19;20424;-71
2022/01/06 03:42:21;;;;;;;3.65;1.55;;;;;;;;;;7390067;19;20330;-71
2022/01/06 03:44:46;;;;;;;4.95;1.08;;;;;;;;;;7391990;19;19998;-71
2022/01/06 03:47:12;;;;;;;4.90;1.42;;;;;;;;;;7391791;19;19997;-71
2022/01/06 03:49:37;;;;;;;2.50;1.08;;;;;;;;;;7388989;19;20002;-71
2022/01/06 03:52:03;;;;;;;3.92;1.10;;;;;;;;;;7391973;19;19995;-71
2022/01/06 03:54:28;;;;;;;3.08;1.00;;;;;;;;;;7391688;19;20018;-71
2022/01/06 03:56:54;;;;;;;5.93;1.13;;;;;;;;;;7391311;19;20353;-72
2022/01/06 03:59:19;;;;;;;5.80;1.60;;;;;;;;;;7388757;19;20002;-71
2022/01/06 04:01:46;;;;;;;5.18;1.48;;;;;;;;;;7390380;19;19998;-71
2022/01/06 04:04:13;;;;;;;2.00;1.10;;;;;;;;;;7391078;19;20430;-71
2022/01/06 04:06:39;;;;;;;3.53;1.40;;;;;;;;;;7390096;19;19998;-71
2022/01/06 04:09:04;;;;;;;3.88;1.50;;;;;;;;;;7391870;19;20062;-71
2022/01/06 04:11:30;;;;;;;5.32;1.45;;;;;;;;;;7394813;19;19994;-72
2022/01/06 04:13:55;;;;;;;5.72;1.17;;;;;;;;;;7390468;19;20419;-71
2022/01/06 04:16:21;;;;;;;5.05;1.85;;;;;;;;;;7390802;19;19994;-71
2022/01/06 04:18:46;;;;;;;5.10;1.70;;;;;;;;;;7388597;19;19998;-70
2022/01/06 04:21:12;;;;;;;3.05;0.98;;;;;;;;;;7390440;19;19999;-71
2022/01/06 04:23:37;;;;;;;5.05;1.25;;;;;;;;;;7389464;19;19991;-71
2022/01/06 04:26:03;;;;;;;9.18;1.40;;;;;;;;;;7390823;19;19991;-72
2022/01/06 04:28:28;;;;;;;6.07;1.25;;;;;;;;;;7388503;19;20021;-72
2022/01/06 04:30:54;;;;;;;1.98;1.17;;;;;;;;;;7390454;19;19990;-71
2022/01/06 04:33:19;;;;;;;4.07;1.40;;;;;;;;;;7390209;19;19998;-71
2022/01/06 04:35:45;;;;;;;5.30;1.08;;;;;;;;;;7390356;19;20012;-72
2022/01/06 04:38:10;;;;;;;5.68;1.20;;;;;;;;;;7388264;19;19995;-72
2022/01/06 04:40:36;;;;;;;3.47;1.30;;;;;;;;;;7389954;19;19998;-71
2022/01/06 04:43:01;;;;;;;1.88;1.08;;;;;;;;;;7387560;19;19994;-70
2022/01/06 04:45:27;;;;;;;4.20;1.10;;;;;;;;;;7389665;19;19999;-71
2022/01/06 04:47:52;;;;;;;3.75;1.48;;;;;;;;;;7389290;19;20002;-71
2022/01/06 04:50:17;;;;;;;2.78;1.10;;;;;;;;;;7388780;19;19994;-71
2022/01/06 04:52:42;;;;;;;3.47;0.98;;;;;;;;;;7389606;19;20002;-72
2022/01/06 04:55:08;;;;;;;3.05;1.15;;;;;;;;;;7389716;19;20002;-71
2022/01/06 04:57:33;;;;;;;1.95;1.00;;;;;;;;;;7389541;19;20017;-71
2022/01/06 04:59:59;;;;;;;3.15;1.10;;;;;;;;;;7391135;19;20028;-72
2022/01/06 05:02:24;;;;;;;3.17;1.20;;;;;;;;;;7387778;19;20345;-71
2022/01/06 05:04:49;;;;;;;4.28;1.30;;;;;;;;;;7389234;19;20452;-71
2022/01/06 05:07:15;;;;;;;4.78;1.08;;;;;;;;;;7389254;19;20528;-72
2022/01/06 05:09:40;;;;;;;3.83;1.40;;;;;;;;;;7386605;19;19995;-71
2022/01/06 05:12:06;;;;;;;2.08;1.10;;;;;;;;;;7388890;19;20013;-72
2022/01/06 05:14:31;;;;;;;2.85;1.17;;;;;;;;;;7393146;19;19994;-71
2022/01/06 05:16:56;;;;;;;2.10;1.00;;;;;;;;;;7389201;19;20002;-70
2022/01/06 05:19:23;;;;;;;1.63;0.93;;;;;;;;;;7386505;19;20005;-71
2022/01/06 05:21:49;;;;;;;6.30;1.50;;;;;;;;;;7388056;19;20010;-71
2022/01/06 05:24:16;;;;;;;1.35;0.93;;;;;;;;;;7388276;19;19990;-71
2022/01/06 05:26:42;;;;;;;6.95;1.10;;;;;;;;;;7388326;19;20373;-72
2022/01/06 05:29:12;;;;;;;2.20;1.20;;;;;;;;;;7386346;19;20467;-70
2022/01/06 05:31:38;;;;;;;1.65;1.20;;;;;;;;;;7388463;19;19994;-71
2022/01/06 05:34:04;;;;;;;3.58;1.27;;;;;;;;;;7388199;19;20018;-71
2022/01/06 05:36:30;;;;;;;3.15;1.20;;;;;;;;;;7385775;19;19995;-72
2022/01/06 05:38:55;;;;;;;0.90;0.85;;;;;;;;;;7386077;19;20019;-71
2022/01/06 05:41:21;;;;;;;3.45;1.05;;;;;;;;;;7387205;19;19990;-70
2022/01/06 05:43:46;;;;;;;2.58;1.27;;;;;;;;;;7387486;19;20090;-71
2022/01/06 05:46:12;;;;;;;3.53;1.10;;;;;;;;;;7388076;19;19994;-71
2022/01/06 05:48:37;;;;;;;2.67;1.38;;;;;;;;;;7388852;19;20013;-71
2022/01/06 05:51:02;;;;;;;2.10;1.40;;;;;;;;;;7391079;19;19991;-72
2022/01/06 05:53:29;;;;;;;1.83;0.90;;;;;;;;;;7387734;19;20321;-70
2022/01/06 05:55:55;;;;;;;4.35;1.20;;;;;;;;;;7387798;19;20460;-71
2022/01/06 05:58:20;;;;;;;3.42;1.52;;;;;;;;;;7385698;19;20006;-71
2022/01/06 06:00:46;;;;;;;6.47;1.80;;;;;;;;;;7387887;19;19999;-71
2022/01/06 06:03:11;;;;;;;3.00;1.13;;;;;;;;;;7387409;19;20429;-71
2022/01/06 06:05:36;;;;;;;2.95;1.63;;;;;;;;;;7387678;19;19999;-72
2022/01/06 06:08:02;;;;;;;3.30;1.42;;;;;;;;;;7386758;19;19999;-71
2022/01/06 06:10:27;;;;;;;3.78;1.35;;;;;;;;;;7386328;19;20016;-71
2022/01/06 06:12:53;;;;;;;3.80;1.92;;;;;;;;;;7387403;19;20054;-73
2022/01/06 06:15:20;;;;;;;1.58;1.13;;;;;;;;;;7387283;19;20554;-71
2022/01/06 06:17:45;;;;;;;2.47;1.25;;;;;;;;;;7386633;19;20005;-72
2022/01/06 06:20:11;;;;;;;2.42;1.20;;;;;;;;;;7386426;19;19998;-71
2022/01/06 06:22:37;;;;;;;2.22;1.20;;;;;;;;;;7385294;19;19994;-72
2022/01/06 06:25:03;;;;;;;1.50;1.13;;;;;;;;;;7386427;19;20015;-71
2022/01/06 06:27:28;;;;;;;2.50;1.25;;;;;;;;;;7386797;19;20006;-71
2022/01/06 06:29:53;;;;;;;3.72;1.83;;;;;;;;;;7384186;19;19994;-71
2022/01/06 06:32:18;;;;;;;3.13;1.20;;;;;;;;;;7386751;19;20424;-71
2022/01/06 06:34:44;;;;;;;1.73;1.00;;;;;;;;;;7386996;19;20006;-71
2022/01/06 06:37:09;;;;;;;2.90;1.02;;;;;;;;;;7387900;19;19995;-71
2022/01/06 06:39:34;;;;;;;2.10;1.20;;;;;;;;;;7387424;19;20512;-70
2022/01/06 06:42:00;;;;;;;1.20;1.10;;;;;;;;;;7385758;19;19998;-71
2022/01/06 06:44:25;;;;;;;3.22;1.55;;;;;;;;;;7386277;19;19995;-71
2022/01/06 06:46:51;;;;;;;11.20;2.92;;;;;;;;;;7387305;19;19991;-71
2022/01/06 06:49:17;;;;;;;5.30;2.17;;;;;;;;;;7390493;19;20432;-71
2022/01/06 06:51:42;;;;;;;2.35;1.00;;;;;;;;;;7393760;19;20014;-71
2022/01/06 06:54:07;;;;;;;2.15;1.02;;;;;;;;;;7393273;19;20018;-72
2022/01/06 06:56:33;;;;;;;2.45;1.00;;;;;;;;;;7393999;19;20457;-71
2022/01/06 06:58:58;;;;;;;2.22;1.10;;;;;;;;;;7390879;19;20469;-71
2022/01/06 07:01:23;;;;;;;2.17;1.05;;;;;;;;;;7392728;19;19994;-71
2022/01/06 07:03:49;;;;;;;1.40;1.08;;;;;;;;;;7393323;19;19991;-70
2022/01/06 07:06:14;;;;;;;1.70;0.70;;;;;;;;;;7393594;19;19998;-72
2022/01/06 07:08:39;;;;;;;1.10;0.80;;;;;;;;;;7391150;19;20327;-72
2022/01/06 07:11:05;;;;;;;1.92;1.00;;;;;;;;;;7391729;19;20314;-72
2022/01/06 07:13:30;;;;;;;2.55;1.60;;;;;;;;;;7392583;19;20046;-73
2022/01/06 07:15:55;;;;;;;1.50;1.08;;;;;;;;;;7393128;19;19995;-71
2022/01/06 07:18:20;;;;;;;1.13;0.90;;;;;;;;;;7393420;19;19991;-72
2022/01/06 07:20:46;;;;;;;0.55;0.55;;;;;;;;;;7392964;19;20389;-72
2022/01/06 07:23:11;;;;;;;0.98;0.75;;;;;;;;;;7390030;19;20046;-72
2022/01/06 07:25:36;;;;;;;1.73;1.00;;;;;;;;;;7392362;19;19990;-72
2022/01/06 07:28:02;;;;;;;2.50;0.88;;;;;;;;;;7394119;19;20475;-73
2022/01/06 07:30:30;;;;;;;1.73;0.88;;;;;;;;;;7395647;19;19987;-72
2022/01/06 07:32:55;;;;;;;1.95;0.88;;;;;;;;;;7392669;19;20009;-72
2022/01/06 07:35:21;;;;;;;2.75;1.10;;;;;;;;;;7391964;19;20337;-72
2022/01/06 07:37:48;;;;;;;2.08;0.88;;;;;;;;;;7392060;19;20018;-71
2022/01/06 07:40:13;;;;;;;2.08;0.80;;;;;;;;;;7391005;19;20464;-72
2022/01/06 07:42:39;;;;;;;1.92;1.00;;;;;;;;;;7390005;19;19990;-72
2022/01/06 07:45:05;;;;;;;1.05;0.82;;;;;;;;;;7392009;19;20432;-72
2022/01/06 07:47:36;;;;;;;2.70;1.45;;;;;;;;;;7391807;19;20023;-72
2022/01/06 07:50:02;;;;;;;3.60;1.10;;;;;;;;;;7390818;19;20010;-71
2022/01/06 07:52:27;;;;;;;2.72;1.75;;;;;;;;;;7391423;19;20472;-72
2022/01/06 07:54:52;;;;;;;2.38;1.10;;;;;;;;;;7392053;19;20019;-71
2022/01/06 07:57:18;;;;;;;1.58;0.93;;;;;;;;;;7391435;19;20022;-72
2022/01/06 07:59:43;;;;;;;2.10;1.02;;;;;;;;;;7386662;19;20009;-72
2022/01/06 08:02:09;;;;;;;1.83;1.20;;;;;;;;;;7390486;19;20052;-71
2022/01/06 08:04:35;;;;;;;3.25;1.20;;;;;;;;;;7391044;19;20359;-72
2022/01/06 08:07:01;;;;;;;2.58;1.13;;;;;;;;;;7391953;19;20036;-71
2022/01/06 08:09:26;;;;;;;1.80;1.00;;;;;;;;;;7388604;19;20002;-71
2022/01/06 08:11:52;;;;;;;0.82;0.82;;;;;;;;;;7391292;19;19991;-72
2022/01/06 08:14:17;;;;;;;3.80;1.88;;;;;;;;;;7391166;19;20483;-71
2022/01/06 08:16:42;;;;;;;8.68;3.58;;;;;;;;;;7391008;19;20013;-72
2022/01/06 08:19:08;;;;;;;43.75;17.80;;;;;;;;;;7392241;19;20006;-72
2022/01/06 08:21:34;;;;;;;7.40;3.30;;;;;;;;;;7394235;19;19999;-72
2022/01/06 08:24:00;;;;;;;2.05;1.40;;;;;;;;;;7391215;19;19995;-71
2022/01/06 08:26:25;;;;;;;3.88;1.65;;;;;;;;;;7390728;19;20019;-72
2022/01/06 08:28:50;;;;;;;3.83;1.70;;;;;;;;;;7388363;19;20009;-71
2022/01/06 08:31:16;;;;;;;1.50;1.10;;;;;;;;;;7390747;19;20590;-72
2022/01/06 08:33:42;;;;;;;2.45;1.08;;;;;;;;;;7390504;19;20029;-71
2022/01/06 08:36:08;;;;;;;2.55;1.17;;;;;;;;;;7390392;19;20002;-71
2022/01/06 08:38:33;;;;;;;2.92;1.38;;;;;;;;;;7388098;19;20003;-72
2022/01/06 08:40:58;;;;;;;2.85;1.48;;;;;;;;;;7389845;19;20005;-72
2022/01/06 08:43:27;;;;;;;1.98;1.40;;;;;;;;;;7390042;19;20030;-71
2022/01/06 08:45:56;;;;;;;1.75;1.40;;;;;;;;;;7389917;19;20002;-72
2022/01/06 08:48:22;;;;;;;2.00;1.20;;;;;;;;;;7388011;19;20006;-72
2022/01/06 08:50:48;;;;;;;2.25;1.38;;;;;;;;;;7389658;19;19995;-72
2022/01/06 08:53:13;;;;;;;1.80;1.10;;;;;;;;;;7389942;19;20468;-71
2022/01/06 08:55:38;;;;;;;3.03;1.40;;;;;;;;;;7389326;19;20003;-72
2022/01/06 08:58:04;;;;;;;2.55;1.10;;;;;;;;;;7388719;19;20002;-71
2022/01/06 09:00:30;;;;;;;2.40;1.10;;;;;;;;;;7387775;19;20025;-72
2022/01/06 09:02:56;;;;;;;1.70;1.25;;;;;;;;;;7388036;19;20411;-71
2022/01/06 09:05:22;;;;;;;1.75;1.02;;;;;;;;;;7389177;19;20452;-71
2022/01/06 09:07:47;;;;;;;1.60;1.17;;;;;;;;;;7390714;19;20011;-72
2022/01/06 09:10:13;;;;;;;3.15;1.20;;;;;;;;;;7391074;19;20398;-71
2022/01/06 09:12:38;;;;;;;1.33;1.20;;;;;;;;;;7387603;19;20432;-71
2022/01/06 09:15:06;;;;;;;1.17;1.08;;;;;;;;;;7389548;19;19994;-72
2022/01/06 09:17:35;;;;;;;1.98;1.17;;;;;;;;;;7388747;19;19998;-72
2022/01/06 09:20:01;;;;;;;1.38;1.02;;;;;;;;;;7387712;19;19999;-71
2022/01/06 09:22:26;;;;;;;3.17;1.10;;;;;;;;;;7388144;19;19998;-72
2022/01/06 09:24:51;;;;;;;1.40;1.05;;;;;;;;;;7388423;19;20019;-72
2022/01/06 09:27:16;;;;;;;2.97;1.35;;;;;;;;;;7389009;19;19995;-72
2022/01/06 09:29:42;;;;;;;1.60;1.27;;;;;;;;;;7385637;19;20006;-72
2022/01/06 09:32:07;;;;;;;1.67;1.20;;;;;;;;;;7388402;19;20029;-71
2022/01/06 09:34:33;;;;;;;1.42;1.00;;;;;;;;;;7387728;19;19998;-72
2022/01/06 09:36:58;;;;;;;2.67;1.10;;;;;;;;;;7388360;19;20500;-72
2022/01/06 09:39:24;;;;;;;3.42;1.23;;;;;;;;;;7385016;19;20003;-71
2022/01/06 09:41:49;;;;;;;2.25;0.98;;;;;;;;;;7387529;19;20041;-72
2022/01/06 09:44:15;;;;;;;4.53;1.38;;;;;;;;;;7388124;19;20050;-71
2022/01/06 09:46:41;;;;;;;2.70;1.50;;;;;;;;;;7387690;19;19995;-72
2022/01/06 09:49:06;;;;;;;2.35;1.50;;;;;;;;;;7385497;19;20106;-74
2022/01/06 09:51:32;;;;;;;2.70;1.33;;;;;;;;;;7389128;19;20432;-72
2022/01/06 09:53:59;;;;;;;3.90;1.95;;;;;;;;;;7387905;19;19998;-72
2022/01/06 09:56:27;;;;;;;4.00;1.65;;;;;;;;;;7386964;19;20003;-73
2022/01/06 09:58:54;;;;;;;4.18;2.08;;;;;;;;;;7389691;19;20003;-73
2022/01/06 10:01:20;;;;;;;3.47;2.03;;;;;;;;;;7391427;19;20002;-73
2022/01/06 10:03:48;;;;;;;2.30;1.70;;;;;;;;;;7387115;19;20002;-70
2022/01/06 10:06:22;;;;;;;4.38;2.10;;;;;;;;;;7387594;19;20479;-73
2022/01/06 10:08:56;;;;;;;4.95;3.00;;;;;;;;;;7385001;19;20337;-73
2022/01/06 10:11:25;;;;;;;3.55;1.88;;;;;;;;;;7387399;19;20460;-73
2022/01/06 10:13:56;;;;;;;4.35;2.58;;;;;;;;;;7386936;19;20010;-73
2022/01/06 10:16:28;;;;;;;5.50;2.42;;;;;;;;;;7387535;19;20019;-73
2022/01/06 10:19:11;;;;;;;7.10;4.22;;;;;;;;;;7385116;19;20003;-72
2022/01/06 10:21:40;;;;;;;4.82;2.95;;;;;;;;;;7386461;19;20011;-73
2022/01/06 10:24:07;;;;;;;4.60;2.90;;;;;;;;;;7394597;19;20731;-72
2022/01/06 10:26:33;;;;;;;5.32;2.45;;;;;;;;;;7394602;19;20002;-73
2022/01/06 10:28:59;;;;;;;7.70;3.47;;;;;;;;;;7391540;19;20013;-73
2022/01/06 10:31:26;;;;;;;6.32;3.92;;;;;;;;;;7395014;19;19998;-73
2022/01/06 10:33:51;;;;;;;4.88;2.72;;;;;;;;;;7394393;19;20006;-72
2022/01/06 10:36:17;;;;;;;3.88;1.98;;;;;;;;;;7394244;19;20006;-72
2022/01/06 10:38:52;;;;;;;3.90;2.00;;;;;;;;;;7391183;19;20002;-72
2022/01/06 10:41:17;;;;;;;;;;;;;;;;;;7393835;19;19998;-70
2022/01/06 10:43:52;;;;;;;4.93;2.65;;;;;;;;;;7393985;19;19939;-72
2022/01/06 10:46:43;;;;;;;7.30;4.50;;;;;;;;;;7394832;19;19995;-72
2022/01/06 10:49:11;;;;;;;4.15;2.47;;;;;;;;;;7394422;19;19999;-73
2022/01/06 10:51:45;;;;;;;3.67;1.40;;;;;;;;;;7393568;19;20054;-72
2022/01/06 10:54:14;;;;;;;3.53;1.98;;;;;;;;;;7393109;19;19999;-73
2022/01/06 10:56:40;;;;;;;3.55;1.70;;;;;;;;;;7393593;19;20003;-72
2022/01/06 10:59:06;;;;;;;3.85;1.50;;;;;;;;;;7389855;19;20002;-72
2022/01/06 11:01:33;;;;;;;2.13;1.58;;;;;;;;;;7392807;19;20001;-72
2022/01/06 11:03:59;;;;;;;2.63;1.60;;;;;;;;;;7393502;19;20448;-72
2022/01/06 11:06:24;;;;;;;4.05;1.70;;;;;;;;;;7392860;19;19999;-72
2022/01/06 11:08:51;;;;;;;2.90;1.63;;;;;;;;;;7391420;19;20002;-72
2022/01/06 11:14:01;;;;;;;4.75;1.77;;;;;;;;;;7395026;19;20445;-73
2022/01/06 11:16:26;;;;;;;3.95;2.00;;;;;;;;;;7393175;19;19991;-72
2022/01/06 11:18:57;;;;;;;4.25;1.60;;;;;;;;;;7390084;19;19999;-72
2022/01/06 11:21:32;;;;;;;3.03;1.30;;;;;;;;;;7392313;19;19998;-73
2022/01/06 11:24:11;;;;;;;3.95;1.50;;;;;;;;;;7392490;19;20002;-72
2022/01/06 11:26:37;;;;;;;5.35;1.88;;;;;;;;;;7393261;19;20036;-73
2022/01/06 11:29:02;;;;;;;2.50;1.63;;;;;;;;;;7389604;19;20002;-72
2022/01/06 11:31:36;;;;;;;4.38;1.75;;;;;;;;;;7392228;19;19990;-73
2022/01/06 11:34:11;;;;;;;2.42;1.40;;;;;;;;;;7389563;19;20006;-73
2022/01/06 11:36:37;;;;;;;2.95;1.48;;;;;;;;;;7393717;19;20391;-72
2022/01/06 11:39:06;;;;;;;3.30;1.50;;;;;;;;;;7392597;19;20010;-73
2022/01/06 11:41:33;;;;;;;2.85;1.52;;;;;;;;;;7391475;19;20412;-73
2022/01/06 11:43:58;;;;;;;3.95;1.40;;;;;;;;;;7391975;19;20003;-70
2022/01/06 11:46:25;;;;;;;3.63;2.20;;;;;;;;;;7392423;19;19997;-73
2022/01/06 11:48:53;;;;;;;5.55;1.70;;;;;;;;;;7389849;19;20007;-70
2022/01/06 11:51:31;;;;;;;5.28;1.67;;;;;;;;;;7391723;19;20058;-70
2022/01/06 11:53:58;;;;;;;4.10;2.15;;;;;;;;;;7391489;19;20014;-73
2022/01/06 11:56:24;;;;;;;4.97;2.10;;;;;;;;;;7391560;19;20003;-73
2022/01/06 11:59:04;;;;;;;2.97;1.55;;;;;;;;;;7388948;19;20010;-71
2022/01/06 12:01:44;;;;;;;4.10;1.70;;;;;;;;;;7390834;19;20006;-74
2022/01/06 12:04:22;;;;;;;2.78;1.55;;;;;;;;;;7391629;19;20098;-71
2022/01/06 12:06:48;;;;;;;4.30;1.55;;;;;;;;;;7390768;19;20018;-70
2022/01/06 12:09:24;;;;;;;5.97;1.85;;;;;;;;;;7388683;19;20009;-71
2022/01/06 12:12:19;;;;;;;4.05;1.40;;;;;;;;;;7391038;19;19998;-70
2022/01/06 12:14:44;;;;;;;3.42;1.30;;;;;;;;;;7389898;19;20003;-70
2022/01/06 12:17:11;;;;;;;4.95;2.10;;;;;;;;;;7390386;19;20005;-73
2022/01/06 12:19:37;;;;;;;4.22;1.40;;;;;;;;;;7387994;19;20523;-72
2022/01/06 12:22:04;;;;;;;5.07;1.67;;;;;;;;;;7389499;19;20435;-70
2022/01/06 12:24:30;;;;;;;7.13;2.20;;;;;;;;;;7390092;19;20548;-73
2022/01/06 12:26:56;;;;;;;6.68;2.33;;;;;;;;;;7393716;19;20003;-72
2022/01/06 12:29:25;;;;;;;11.55;2.45;;;;;;;;;;7391108;19;20005;-72
2022/01/06 12:31:52;;;;;;;8.52;2.08;;;;;;;;;;7390067;19;19998;-72
2022/01/06 12:34:20;;;;;;;7.53;2.20;;;;;;;;;;7389553;19;20383;-72
2022/01/06 12:36:46;;;;;;;3.67;1.60;;;;;;;;;;7390298;19;20464;-73
2022/01/06 12:39:15;;;;;;;3.17;1.33;;;;;;;;;;7387734;19;20495;-72
2022/01/06 12:41:42;;;;;;;6.38;1.70;;;;;;;;;;7389143;19;20003;-73
2022/01/06 12:44:09;;;;;;;11.25;2.10;;;;;;;;;;7389493;19;20002;-73
2022/01/06 12:46:41;;;;;;;5.20;1.45;;;;;;;;;;7389633;19;20051;-73
2022/01/06 12:49:08;;;;;;;3.85;1.30;;;;;;;;;;7387336;19;20002;-73
2022/01/06 12:51:42;;;;;;;4.45;1.80;;;;;;;;;;7389871;19;20019;-73
2022/01/06 12:54:15;;;;;;;4.70;1.48;;;;;;;;;;7389626;19;20020;-73
2022/01/06 12:56:43;;;;;;;3.50;1.25;;;;;;;;;;7389616;19;20128;-73
2022/01/06 12:59:14;;;;;;;7.60;1.40;;;;;;;;;;7387499;19;20516;-73
2022/01/06 13:01:41;;;;;;;4.18;1.40;;;;;;;;;;7388981;19;20476;-73
2022/01/06 13:04:08;;;;;;;4.20;1.42;;;;;;;;;;7389038;19;20418;-72
2022/01/06 13:06:35;;;;;;;5.38;1.23;;;;;;;;;;7389278;19;20058;-73
2022/01/06 13:09:13;;;;;;;6.32;1.35;;;;;;;;;;7386941;19;20002;-73
2022/01/06 13:11:48;;;;;;;6.75;1.50;;;;;;;;;;7389796;19;20003;-73
2022/01/06 13:14:27;;;;;;;5.43;1.25;;;;;;;;;;7388760;19;20003;-72
2022/01/06 13:17:02;;;;;;;9.07;1.20;;;;;;;;;;7393341;19;20013;-73
2022/01/06 13:19:28;;;;;;;4.78;1.35;;;;;;;;;;7390477;19;20106;-72
2022/01/06 13:21:58;;;;;;;4.03;1.20;;;;;;;;;;7387929;19;20078;-74
2022/01/06 13:24:29;;;;;;;8.20;1.50;;;;;;;;;;7390991;19;20009;-73
2022/01/06 13:27:02;;;;;;;6.63;1.30;;;;;;;;;;7386160;19;20022;-72
2022/01/06 13:29:35;;;;;;;1.98;1.33;;;;;;;;;;7386439;19;20010;-73
2022/01/06 13:32:07;;;;;;;5.03;1.23;;;;;;;;;;7388725;19;19999;-72
2022/01/06 13:34:39;;;;;;;4.05;1.48;;;;;;;;;;7388493;19;20103;-73
2022/01/06 13:37:07;;;;;;;4.95;1.92;;;;;;;;;;7388639;19;20058;-72
2022/01/06 13:39:40;;;;;;;7.15;2.28;;;;;;;;;;7385746;19;20022;-72
2022/01/06 13:42:08;;;;;;;6.55;1.30;;;;;;;;;;7387347;19;19998;-74
2022/01/06 13:44:34;;;;;;;12.30;2.60;;;;;;;;;;7388011;19;19999;-73
2022/01/06 13:47:17;;;;;;;4.90;1.70;;;;;;;;;;7388002;19;19995;-72
2022/01/06 13:52:32;;;;;;;12.00;1.85;;;;;;;;;;7387967;19;20036;-72
2022/01/06 13:54:57;;;;;;;10.70;2.10;;;;;;;;;;7387275;19;19999;-73
2022/01/06 13:57:23;;;;;;;6.53;1.85;;;;;;;;;;7385265;19;20002;-73
2022/01/06 13:59:48;;;;;;;6.78;3.92;;;;;;;;;;7384918;19;20460;-73
2022/01/06 14:02:17;;;;;;;3.05;2.33;;;;;;;;;;7386563;19;20019;-73
2022/01/06 14:04:46;;;;;;;12.57;2.80;;;;;;;;;;7387487;19;20332;-73
2022/01/06 14:07:13;;;;;;;5.45;2.75;;;;;;;;;;7390824;19;20140;-72
2022/01/06 14:09:39;;;;;;;7.50;2.97;;;;;;;;;;7384564;19;20006;-72
2022/01/06 14:12:05;;;;;;;10.95;2.90;;;;;;;;;;7387641;19;20058;-73
2022/01/06 14:14:30;;;;;;;3.58;1.42;;;;;;;;;;7387519;19;20019;-72
2022/01/06 14:16:56;;;;;;;4.60;1.45;;;;;;;;;;7386975;19;20468;-72
2022/01/06 14:19:22;;;;;;;6.20;2.10;;;;;;;;;;7384253;19;20006;-73
2022/01/06 14:21:47;;;;;;;7.55;2.00;;;;;;;;;;7386389;19;20028;-72
2022/01/06 14:24:13;;;;;;;9.32;2.45;;;;;;;;;;7386550;19;20692;-72
2022/01/06 14:26:38;;;;;;;6.80;2.15;;;;;;;;;;7387105;19;20315;-72
2022/01/06 14:29:04;;;;;;;8.18;2.38;;;;;;;;;;7385529;19;19998;-72
2022/01/06 14:31:30;;;;;;;5.03;1.70;;;;;;;;;;7387668;19;20015;-72
2022/01/06 14:33:55;;;;;;;4.35;1.85;;;;;;;;;;7386541;19;20472;-73
2022/01/06 14:36:21;;;;;;;6.30;1.90;;;;;;;;;;7387170;19;20032;-72
2022/01/06 14:38:47;;;;;;;4.68;2.25;;;;;;;;;;7384420;19;20028;-72
2022/01/06 14:41:16;;;;;;;8.82;2.10;;;;;;;;;;7386705;19;20410;-72
2022/01/06 14:43:42;;;;;;;7.07;1.65;;;;;;;;;;7385063;19;19999;-73
2022/01/06 14:46:08;;;;;;;7.20;1.75;;;;;;;;;;7386435;19;20022;-73
2022/01/06 14:48:34;;;;;;;7.78;3.40;;;;;;;;;;7384711;19;20010;-73
2022/01/06 14:51:00;;;;;;;5.90;2.10;;;;;;;;;;7386554;19;19994;-73
2022/01/06 14:53:25;;;;;;;7.20;1.80;;;;;;;;;;7386699;19;20002;-73